createdAt,value
2022-10-18T00:02:29.923Z,99207.3
2022-10-18T00:08:05.735Z,99204.6
2022-10-18T00:13:41.772Z,99202.4
2022-10-18T00:19:18.756Z,99206.2
2022-10-18T00:24:53.627Z,99194.3
2022-10-18T00:30:28.478Z,99184.7
2022-10-18T00:36:04.074Z,99184.6
2022-10-18T00:42:00.648Z,99183.1
2022-10-18T00:47:33.539Z,99181.7
2022-10-18T00:53:08.626Z,99178.7
2022-10-18T00:58:43.494Z,99175.9
2022-10-18T01:04:18.313Z,99167.7
2022-10-18T01:09:53.381Z,99171.1
2022-10-18T01:15:29.270Z,99170.6
2022-10-18T01:21:05.178Z,99180.7
2022-10-18T01:26:40.227Z,99171.2
2022-10-18T01:32:15.950Z,99170.7
2022-10-18T01:37:51.986Z,99177.7
2022-10-18T01:43:48.902Z,99175.6
2022-10-18T01:49:21.771Z,99179.7
2022-10-18T01:54:56.673Z,99171.9
2022-10-18T02:00:31.678Z,99189.6
2022-10-18T02:06:06.635Z,99178.4
2022-10-18T02:11:41.355Z,99180.2
2022-10-18T02:17:17.345Z,99174.9
2022-10-18T02:22:52.155Z,99171.3
2022-10-18T02:28:27.060Z,99166.5
2022-10-18T02:34:03.066Z,99161.9
2022-10-18T02:39:38.197Z,99156.9
2022-10-18T02:45:12.944Z,99165.1
2022-10-18T02:50:47.991Z,99159.4
2022-10-18T02:56:23.892Z,99156.6
2022-10-18T03:01:59.711Z,99159.2
2022-10-18T03:07:35.811Z,99145.1
2022-10-18T03:13:10.747Z,99153.8
2022-10-18T03:18:46.567Z,99147.7
2022-10-18T03:24:21.563Z,99150.5
2022-10-18T03:29:56.394Z,99155
2022-10-18T03:35:31.072Z,99153.8
2022-10-18T03:41:27.888Z,99155.5
2022-10-18T03:47:01.701Z,99153.6
2022-10-18T03:52:37.834Z,99149.7
2022-10-18T03:58:12.680Z,99149.7
2022-10-18T04:03:47.736Z,99147.2
2022-10-18T04:09:22.468Z,99145.5
2022-10-18T04:14:58.333Z,99159.6
2022-10-18T04:20:34.447Z,99145.5
2022-10-18T04:26:09.386Z,99143.4
2022-10-18T04:31:44.326Z,99148.9
2022-10-18T04:37:20.495Z,99155.2
2022-10-18T04:43:17.103Z,99156.7
2022-10-18T04:48:49.958Z,99155.1
2022-10-18T04:54:29.228Z,99150.7
2022-10-18T05:00:05.085Z,99153.3
2022-10-18T05:06:03.859Z,99156.1
2022-10-18T05:11:38.919Z,99149.3
2022-10-18T05:17:14.036Z,99150.2
2022-10-18T05:22:48.976Z,99152.5
2022-10-18T05:28:42.059Z,99152.1
2022-10-18T05:34:18.009Z,99150.5
2022-10-18T05:39:52.928Z,99150.8
2022-10-18T05:45:29.113Z,99153.5
2022-10-18T05:51:04.813Z,99163
2022-10-18T05:56:40.724Z,99156.1
2022-10-18T06:02:16.054Z,99156.7
2022-10-18T06:07:51.324Z,99154.6
2022-10-18T06:13:33.897Z,99143.2
2022-10-18T06:19:09.136Z,99145.6
2022-10-18T06:24:45.080Z,99141.6
2022-10-18T06:30:19.848Z,99132.8
2022-10-18T06:35:54.736Z,99132.8
2022-10-18T06:41:51.449Z,99135.8
2022-10-18T06:47:24.237Z,99133.1
2022-10-18T06:53:00.509Z,99135.6
2022-10-18T06:58:36.337Z,99131.7
2022-10-18T07:04:28.278Z,99140.5
2022-10-18T07:10:13.834Z,99132.5
2022-10-18T07:15:49.909Z,99135.2
2022-10-18T07:21:24.898Z,99142.8
2022-10-18T07:27:20.857Z,99139.2
2022-10-18T07:33:10.075Z,99140.6
2022-10-18T07:38:45.233Z,99143.9
2022-10-18T07:44:29.327Z,99139.1
2022-10-18T07:50:04.177Z,99142
2022-10-18T07:55:44.432Z,99152.7
2022-10-18T08:01:20.196Z,99150.2
2022-10-18T08:06:55.980Z,99151
2022-10-18T08:12:30.827Z,99144.4
2022-10-18T08:18:28.579Z,99146.2
2022-10-18T08:24:06.661Z,99161
2022-10-18T08:29:42.888Z,99141.5
2022-10-18T08:35:22.443Z,99144.2
2022-10-18T08:41:45.190Z,99139.1
2022-10-18T08:47:17.912Z,99157.2
2022-10-18T08:53:17.129Z,99153.4
2022-10-18T08:58:54.007Z,99140.5
2022-10-18T09:06:01.361Z,99147.9
2022-10-18T09:11:43.572Z,99147.8
2022-10-18T09:17:18.596Z,99146.3
2022-10-18T09:22:55.612Z,99153.7
2022-10-18T09:28:36.100Z,99149.1
2022-10-18T09:34:11.797Z,99134.1
2022-10-18T09:39:52.908Z,99158.8
2022-10-18T09:45:28.111Z,99141.6
2022-10-18T09:51:19.479Z,99143.2
2022-10-18T10:02:41.081Z,99130.2
2022-10-18T10:08:31.995Z,99147.4
2022-10-18T10:14:28.907Z,99131.4
2022-10-18T10:20:09.658Z,99146.4
2022-10-18T10:25:44.572Z,99133.5
2022-10-18T10:31:19.719Z,99119.6
2022-10-18T10:36:54.697Z,99122.1
2022-10-18T10:42:51.268Z,99133.4
2022-10-18T10:49:41.130Z,99128.8
2022-10-18T10:55:36.099Z,99124.5
2022-10-18T11:01:12.000Z,99127.2
2022-10-18T11:06:47.844Z,99116.6
2022-10-18T11:12:23.879Z,99115
2022-10-18T11:17:58.923Z,99110
2022-10-18T11:23:37.211Z,99101.6
2022-10-18T11:29:12.094Z,99086.4
2022-10-18T11:34:46.968Z,99076.6
2022-10-18T11:40:22.092Z,99070.9
2022-10-18T11:45:57.253Z,99059.5
2022-10-18T11:52:14.316Z,99048.7
2022-10-18T11:57:51.685Z,99040.6
2022-10-18T12:03:26.624Z,99038.9
2022-10-18T12:09:01.614Z,99036
2022-10-18T12:14:37.449Z,99029.2
2022-10-18T12:20:12.563Z,99022.2
2022-10-18T12:25:48.442Z,99018.1
2022-10-18T12:31:26.269Z,99005.2
2022-10-18T12:43:03.420Z,98997.8
2022-10-18T12:48:39.528Z,98990.7
2022-10-18T12:54:41.100Z,98983
2022-10-18T13:00:18.004Z,98976
2022-10-18T13:05:57.451Z,98968.7
2022-10-18T13:11:52.765Z,98960.9
2022-10-18T13:17:48.691Z,98963.9
2022-10-18T13:23:28.170Z,98964.3
2022-10-18T13:29:09.199Z,98963.8
2022-10-18T13:34:45.300Z,98952.7
2022-10-18T13:40:21.318Z,98951
2022-10-18T13:46:00.687Z,98946.3
2022-10-18T13:51:39.724Z,98942.3
2022-10-18T13:57:15.892Z,98935.1
2022-10-18T14:03:10.108Z,98932
2022-10-18T14:10:01.984Z,98935.8
2022-10-18T14:15:40.172Z,98934.8
2022-10-18T14:21:32.185Z,98935.5
2022-10-18T14:27:31.889Z,98935.4
2022-10-18T14:33:09.274Z,98933.3
2022-10-18T14:38:44.396Z,98927.1
2022-10-18T14:44:29.454Z,98921.7
2022-10-18T14:50:04.586Z,98926.1
2022-10-18T14:55:39.626Z,98921.1
2022-10-18T15:01:20.117Z,98918.8
2022-10-18T15:06:55.656Z,98921.4
2022-10-18T15:13:09.561Z,98922.6
2022-10-18T15:19:11.505Z,98916.5
2022-10-18T15:24:47.228Z,98914.2
2022-10-18T15:30:22.657Z,98922.1
2022-10-18T15:35:57.708Z,98926.9
2022-10-18T15:42:44.484Z,98919.1
2022-10-18T15:48:18.117Z,98917.3
2022-10-18T15:53:54.551Z,98921.6
2022-10-18T16:00:07.037Z,98914.7
2022-10-18T16:05:47.369Z,98914
2022-10-18T16:11:27.393Z,98913.5
2022-10-18T16:17:05.238Z,98909
2022-10-18T16:22:41.588Z,98909.9
2022-10-18T16:28:26.881Z,98906.8
2022-10-18T16:34:37.718Z,98907.7
2022-10-18T16:40:13.777Z,98906.9
2022-10-18T16:45:48.988Z,98904.8
2022-10-18T16:51:35.675Z,98894.4
2022-10-18T16:57:31.328Z,98896.1
2022-10-18T17:03:10.687Z,98900.7
2022-10-18T17:08:45.682Z,98893.7
2022-10-18T17:14:20.493Z,98892.5
2022-10-18T17:19:54.940Z,98892.3
2022-10-18T17:25:32.053Z,98891.8
2022-10-18T17:31:56.689Z,98898.5
2022-10-18T17:37:33.204Z,98904.7
2022-10-18T17:43:10.650Z,98901.5
2022-10-18T17:48:55.349Z,98898.2
2022-10-18T17:54:30.421Z,98903.9
2022-10-18T18:00:05.116Z,98902.6
2022-10-18T18:05:48.537Z,98907.8
2022-10-18T18:11:45.400Z,98909.6
2022-10-18T18:17:56.934Z,98904.6
2022-10-18T18:23:34.075Z,98910.4
2022-10-18T18:29:11.872Z,98916.5
2022-10-18T18:34:50.130Z,98912.5
2022-10-18T18:40:25.393Z,98912.5
2022-10-18T18:46:08.550Z,98913.6
2022-10-18T18:51:43.423Z,98912.4
2022-10-18T18:57:26.237Z,98909.2
2022-10-18T19:03:29.722Z,98905.8
2022-10-18T19:09:14.124Z,98908.7
2022-10-18T19:14:49.065Z,98905.1
2022-10-18T19:20:32.793Z,98903.1
2022-10-18T19:26:11.425Z,98900.1
2022-10-18T19:31:50.042Z,98898.3
2022-10-18T19:37:29.300Z,98892.5
2022-10-18T19:43:05.031Z,98891
2022-10-18T19:48:42.707Z,98886.9
2022-10-18T19:54:26.222Z,98890
2022-10-18T20:00:08.154Z,98885.9
2022-10-18T20:06:07.537Z,98889.1
2022-10-18T20:11:42.336Z,98894.8
2022-10-18T20:17:18.370Z,98893.2
2022-10-18T20:22:54.519Z,98889.7
2022-10-18T20:28:40.694Z,98890.4
2022-10-18T20:34:50.230Z,98884.1
2022-10-18T20:42:02.641Z,98886
2022-10-18T20:47:44.028Z,98873.9
2022-10-18T20:53:39.877Z,98876
2022-10-18T20:59:15.016Z,98879.6
2022-10-18T21:04:49.867Z,98879
2022-10-18T21:10:27.781Z,98884.8
2022-10-18T21:16:02.900Z,98887.3
2022-10-18T21:21:46.320Z,98885.3
2022-10-18T21:27:22.275Z,98876
2022-10-18T21:32:57.170Z,98881.3
2022-10-18T21:38:32.230Z,98872.7
2022-10-18T21:44:11.270Z,98856.5
2022-10-18T21:49:46.131Z,98853.8
2022-10-18T21:55:21.203Z,98846.2
2022-10-18T22:00:56.457Z,98853.9
2022-10-18T22:06:32.626Z,98853.2
2022-10-18T22:12:11.361Z,98843.1
2022-10-18T22:17:46.630Z,98835.8
2022-10-18T22:23:21.587Z,98834
2022-10-18T22:28:56.902Z,98836.3
2022-10-18T22:34:33.033Z,98832.4
2022-10-18T22:40:08.107Z,98822.8
2022-10-18T22:45:42.811Z,98821
2022-10-18T22:51:17.874Z,98806.2
2022-10-18T22:56:52.837Z,98808.8
2022-10-18T23:02:27.645Z,98799.8
2022-10-18T23:08:02.726Z,98771.1
2022-10-18T23:13:40.190Z,98780.8
2022-10-18T23:19:15.291Z,98778
2022-10-18T23:24:50.314Z,98761.1
2022-10-18T23:30:26.092Z,98754
2022-10-18T23:36:01.278Z,98771
2022-10-18T23:41:37.434Z,98748.1
2022-10-18T23:47:12.429Z,98746.9
2022-10-18T23:52:47.387Z,98735.6
2022-10-18T23:58:23.164Z,98726.2
